Погода Боровинына 2 недели

Лодзинское воеводство, Польша

24 мая-06 июня
  • 24мая
    Сегодня
    +13°
    +27°
    Ясно и безоблачно
    ВремяПогодаТемператураВлажностьДавлениеВетер, м/сВероятность осадков
    02:00Пасмурно, сплошная облачность+15°C97 %753 мм0.4 м/с48 %
    05:00Ясно и безоблачно+14°C98 %753 мм1.2 м/с25 %
    08:00Ясно и безоблачно+18°C86 %754 мм0.9 м/с4 %
    11:00Практически безоблачно+23°C65 %754 мм1.8 м/с2 %
    14:00Ясно и безоблачно+25°C53 %753 мм2.2 м/с3 %
    17:00Практически безоблачно+26°C36 %752 мм5.2 м/с7 %
    20:00Ясно и безоблачно+21°C65 %753 мм2.1 м/с6 %
    23:00Ясно и безоблачно+16°C87 %753 мм2.0 м/с2 %
  • 25мая
    Суббота
    +12°
    +26°
    Облачно с прояснениями
    ВремяПогодаТемператураВлажностьДавлениеВетер, м/сВероятность осадков
    02:00Ясно и безоблачно+15°C90 %753 мм2.6 м/с2 %
    05:00Облачно с прояснениями+14°C90 %753 мм2.9 м/с2 %
    08:00Ясно и безоблачно+19°C73 %754 мм2.5 м/с2 %
    11:00Небольшая облачность+24°C57 %754 мм2.5 м/с11 %
    14:00Облачно с прояснениями+25°C49 %754 мм2.7 м/с34 %
    17:00Облачно с прояснениями+25°C47 %753 мм3.2 м/с44 %
    20:00Облачно с прояснениями+18°C87 %754 мм0.1 м/с45 %
    23:00Ясно и безоблачно+14°C95 %753 мм2.2 м/с10 %
  • 26мая
    Воскресенье
    +12°
    +26°
    Облачно с прояснениями
    ВремяПогодаТемператураВлажностьДавлениеВетер, м/сВероятность осадков
    02:00Небольшая облачность+13°C93 %753 мм1.9 м/с2 %
    05:00Ясно и безоблачно+12°C96 %754 мм1.7 м/с2 %
    08:00Ясно и безоблачно+18°C83 %755 мм1.0 м/с2 %
    11:00Практически безоблачно+24°C52 %755 мм2.1 м/с8 %
    14:00Облачно с прояснениями+26°C39 %754 мм2.9 м/с23 %
    17:00Небольшая облачность+24°C40 %754 мм2.9 м/с44 %
    20:00Практически безоблачно+21°C55 %755 мм2.1 м/с26 %
    23:00Облачно с прояснениями+16°C73 %755 мм2.0 м/с4 %
  • 27мая
    Понедельник
    +12°
    +27°
    Ясно и безоблачно
    ВремяПогодаТемператураВлажностьДавлениеВетер, м/сВероятность осадков
    02:00Ясно и безоблачно+14°C76 %755 мм2.1 м/с2 %
    05:00Ясно и безоблачно+13°C64 %755 мм2.9 м/с2 %
    08:00Ясно и безоблачно+19°C55 %756 мм2.3 м/с2 %
    11:00Ясно и безоблачно+25°C39 %756 мм2.3 м/с4 %
    14:00Ясно и безоблачно+27°C27 %755 мм3.0 м/с6 %
    17:00Ясно и безоблачно+27°C27 %754 мм2.9 м/с9 %
    20:00Ясно и безоблачно+21°C52 %753 мм2.0 м/с2 %
    23:00Ясно и безоблачно+17°C40 %754 мм3.4 м/с2 %
  • 28мая
    Вторник
    +12°
    +27°
    Облачно с прояснениями
    ВремяПогодаТемператураВлажностьДавлениеВетер, м/сВероятность осадков
    02:00Практически безоблачно+14°C51 %754 мм2.8 м/с2 %
    05:00Ясно и безоблачно+13°C56 %754 мм3.3 м/с2 %
    08:00Ясно и безоблачно+20°C51 %754 мм3.0 м/с2 %
    11:00Ясно и безоблачно+25°C29 %754 мм4.6 м/с2 %
    14:00Облачно с прояснениями+26°C26 %753 мм4.1 м/с2 %
    17:00Небольшая облачность+26°C26 %752 мм4.1 м/с7 %
    20:00Небольшая облачность+23°C43 %752 мм1.3 м/с3 %
    23:00Облачно с прояснениями+17°C54 %752 мм2.0 м/с2 %
Мы используем cookies
Соглашаюсь